Time;durP1;ratioP1;P1;durP2;ratioP2;P2;SDS_P1;SDS_P2;PMS_P1;PMS_P2;Temp;Humidity;BMP_temperature;BMP_pressure;BME280_temperature;BME280_humidity;BME280_pressure;Samples;Min_cycle;Max_cycle;Signal;HPM_P1;HPM_P2
2022/04/13 00:00:10;;;;;;;2.08;1.00;;;;;;;8.05;52.16;101951.06;4914943;29;20527;-80
2022/04/13 00:02:36;;;;;;;5.28;1.00;;;;;;;7.92;52.23;101935.38;4899849;29;20060;-80
2022/04/13 00:05:02;;;;;;;4.28;1.08;;;;;;;8.04;52.22;101953.88;4900913;29;20083;-80
2022/04/13 00:07:28;;;;;;;7.03;1.27;;;;;;;8.06;51.96;101949.22;4901822;29;20091;-81
2022/04/13 00:09:55;;;;;;;1.95;1.00;;;;;;;8.02;52.42;101946.00;4901060;29;20047;-81
2022/04/13 00:12:21;;;;;;;5.18;1.02;;;;;;;7.89;51.95;101933.00;4898651;29;20052;-81
2022/04/13 00:14:48;;;;;;;3.55;0.90;;;;;;;7.94;52.13;101941.41;4910487;29;20056;-81
2022/04/13 00:17:14;;;;;;;3.08;1.13;;;;;;;7.93;52.45;101945.09;4920722;29;20038;-80
2022/04/13 00:19:39;;;;;;;2.97;0.90;;;;;;;7.80;52.51;101941.94;4923842;29;20122;-80
2022/04/13 00:22:04;;;;;;;4.28;1.27;;;;;;;7.68;51.96;101935.13;4902900;29;20092;-81
2022/04/13 00:24:30;;;;;;;2.97;1.00;;;;;;;7.72;52.61;101937.34;4918840;29;20035;-80
2022/04/13 00:26:57;;;;;;;3.90;1.48;;;;;;;7.66;52.54;101923.72;4911692;29;20041;-81
2022/04/13 00:29:23;;;;;;;5.53;1.00;;;;;;;7.62;52.18;101925.03;4899242;29;20056;-80
2022/04/13 00:31:48;;;;;;;2.67;1.05;;;;;;;7.66;52.32;101931.78;4913587;29;20131;-80
2022/04/13 00:34:14;;;;;;;5.45;1.13;;;;;;;7.60;52.75;101927.03;4928960;29;20064;-81
2022/04/13 00:36:39;;;;;;;11.30;1.20;;;;;;;7.57;52.90;101932.69;4899243;29;20029;-79
2022/04/13 00:39:05;;;;;;;2.50;1.05;;;;;;;7.51;52.99;101913.53;4882213;29;20041;-81
2022/04/13 00:41:30;;;;;;;5.18;1.50;;;;;;;7.51;54.08;101918.03;4898585;29;20060;-80
2022/04/13 00:44:08;;;;;;;6.07;1.30;;;;;;;7.50;53.90;101921.72;4900313;29;20055;-80
2022/04/13 00:46:34;;;;;;;3.90;1.20;;;;;;;7.53;53.94;101916.91;4912756;29;20478;-81
2022/04/13 00:49:01;;;;;;;4.57;1.45;;;;;;;7.44;53.89;101908.94;4917637;29;20028;-80
2022/04/13 00:51:27;;;;;;;5.40;1.10;;;;;;;7.29;54.15;101892.56;4906582;29;20054;-81
2022/04/13 00:53:56;;;;;;;3.65;1.15;;;;;;;7.36;53.78;101896.31;4899398;29;20061;-81
2022/04/13 00:56:24;;;;;;;4.82;0.90;;;;;;;7.38;54.08;101912.22;4917322;29;20459;-81
2022/04/13 00:58:54;;;;;;;6.72;1.05;;;;;;;7.25;53.65;101883.13;4914995;29;20105;-80
2022/04/13 01:01:22;;;;;;;3.60;1.00;;;;;;;7.41;53.58;101914.59;4898324;29;20021;-81
2022/04/13 01:03:51;;;;;;;4.70;1.02;;;;;;;7.34;52.60;101897.44;4897858;29;20333;-80
2022/04/13 01:06:18;;;;;;;4.47;1.08;;;;;;;7.42;52.69;101910.94;4885480;29;20047;-81
2022/04/13 01:08:45;;;;;;;3.67;1.02;;;;;;;7.41;51.83;101903.88;4917649;29;20598;-80
2022/04/13 01:11:11;;;;;;;1.50;0.80;;;;;;;7.43;51.38;101897.38;4914192;29;20504;-80
2022/04/13 01:13:39;;;;;;;5.57;1.15;;;;;;;7.45;51.16;101898.09;4898474;29;20040;-81
2022/04/13 01:16:06;;;;;;;1.90;0.70;;;;;;;7.40;50.24;101897.69;4897702;29;20140;-81
2022/04/13 01:18:31;;;;;;;2.10;0.73;;;;;;;7.51;49.92;101892.09;4898312;29;20415;-81
2022/04/13 01:20:57;;;;;;;2.40;0.77;;;;;;;7.51;50.07;101891.25;4898232;29;20040;-81
2022/04/13 01:23:24;;;;;;;2.40;1.08;;;;;;;7.54;50.05;101889.13;4898379;29;20032;-81
2022/04/13 01:25:54;;;;;;;1.60;0.70;;;;;;;7.47;49.67;101888.06;4917574;29;20047;-81
2022/04/13 01:28:20;;;;;;;2.20;0.68;;;;;;;7.36;49.13;101885.59;4916992;29;20122;-80
2022/04/13 01:30:46;;;;;;;2.58;0.95;;;;;;;7.41;48.79;101877.94;4925279;29;20027;-81
2022/04/13 01:33:11;;;;;;;3.95;0.60;;;;;;;7.42;48.50;101886.84;4905874;29;20028;-81
2022/04/13 01:35:38;;;;;;;1.90;0.47;;;;;;;7.44;48.48;101879.47;4911649;29;20471;-81
2022/04/13 01:38:05;;;;;;;1.90;0.80;;;;;;;7.35;47.63;101872.34;4899418;29;20063;-81
2022/04/13 01:40:31;;;;;;;2.10;0.60;;;;;;;7.32;48.45;101876.19;4897935;29;20033;-81
2022/04/13 01:42:56;;;;;;;4.53;0.50;;;;;;;7.43;48.11;101878.66;4897814;29;20044;-81
2022/04/13 01:45:21;;;;;;;3.22;0.70;;;;;;;7.33;48.13;101880.56;4914405;29;20124;-81
2022/04/13 01:47:51;;;;;;;1.67;0.63;;;;;;;7.29;47.79;101879.19;4900996;29;20040;-81
2022/04/13 01:50:18;;;;;;;3.33;0.75;;;;;;;7.28;47.34;101874.78;4908634;29;20032;-81
2022/04/13 01:52:44;;;;;;;3.75;0.70;;;;;;;7.35;47.71;101872.34;4911087;29;20092;-81
2022/04/13 01:55:10;;;;;;;1.15;0.50;;;;;;;7.27;47.21;101859.72;4901713;29;20051;-81
2022/04/13 01:57:37;;;;;;;0.75;0.57;;;;;;;7.24;46.88;101860.88;4899093;29;20499;-81
2022/04/13 02:00:08;;;;;;;1.55;0.60;;;;;;;7.26;46.82;101863.41;4900052;29;20039;-82
2022/04/13 02:02:33;;;;;;;2.58;0.60;;;;;;;7.20;46.19;101853.31;4910889;29;20025;-81
2022/04/13 02:04:59;;;;;;;2.55;0.70;;;;;;;7.25;46.35;101853.69;4893878;29;20036;-80
2022/04/13 02:07:27;;;;;;;1.63;0.60;;;;;;;7.23;46.48;101836.94;4880304;29;20029;-81
2022/04/13 02:09:53;;;;;;;2.63;0.65;;;;;;;7.27;46.82;101846.34;4883724;29;20033;-81
2022/04/13 02:12:18;;;;;;;1.60;0.50;;;;;;;7.24;46.62;101843.97;4904087;29;20039;-81
2022/04/13 02:14:44;;;;;;;1.65;0.60;;;;;;;7.28;46.71;101848.03;4898139;29;20037;-80
2022/04/13 02:17:10;;;;;;;1.48;0.60;;;;;;;7.06;46.34;101839.44;4913644;29;20478;-81
2022/04/13 02:19:35;;;;;;;2.75;0.75;;;;;;;7.19;46.79;101852.47;4930314;29;20493;-80
2022/04/13 02:22:01;;;;;;;1.05;0.43;;;;;;;7.23;46.87;101853.84;4920547;29;20119;-80
2022/04/13 02:24:27;;;;;;;0.90;0.50;;;;;;;7.18;46.81;101853.44;4917454;29;20036;-81
2022/04/13 02:26:52;;;;;;;1.60;0.60;;;;;;;7.10;47.06;101828.44;4921116;29;20111;-81
2022/04/13 02:29:18;;;;;;;1.38;0.47;;;;;;;7.17;46.97;101851.75;4912546;29;20064;-81
2022/04/13 02:31:43;;;;;;;2.55;0.80;;;;;;;7.17;47.00;101845.56;4886022;29;20092;-81
2022/04/13 02:34:08;;;;;;;2.92;0.40;;;;;;;7.21;46.94;101850.47;4900029;29;20045;-80
2022/04/13 02:36:35;;;;;;;1.58;0.60;;;;;;;7.05;47.20;101837.78;4902451;29;20029;-81
2022/04/13 02:39:00;;;;;;;1.58;0.60;;;;;;;7.09;47.57;101842.81;4902138;29;20044;-81
2022/04/13 02:41:26;;;;;;;1.85;0.55;;;;;;;7.05;47.57;101837.78;4903785;29;20036;-81
2022/04/13 02:43:51;;;;;;;3.25;0.55;;;;;;;7.03;47.32;101831.72;4915619;29;20033;-81
2022/04/13 02:46:16;;;;;;;2.53;0.63;;;;;;;7.04;47.19;101829.88;4928195;29;20033;-81
2022/04/13 02:48:42;;;;;;;2.25;0.40;;;;;;;6.87;47.24;101809.28;4932818;29;20036;-80
2022/04/13 02:51:07;;;;;;;1.75;0.57;;;;;;;6.92;47.40;101807.00;4933389;29;20132;-80
2022/04/13 02:53:33;;;;;;;2.00;0.80;;;;;;;7.06;48.08;101828.75;4917293;29;20009;-81
2022/04/13 02:55:59;;;;;;;2.60;0.63;;;;;;;6.90;47.59;101815.19;4901997;29;20123;-80
2022/04/13 02:58:24;;;;;;;1.98;0.60;;;;;;;6.93;47.86;101814.88;4918735;29;20036;-81
2022/04/13 03:00:50;;;;;;;1.75;0.57;;;;;;;6.90;47.82;101809.00;4900891;29;20447;-81
2022/04/13 03:03:16;;;;;;;2.20;0.88;;;;;;;6.80;48.00;101806.38;4915634;29;20473;-81
2022/04/13 03:05:42;;;;;;;1.17;0.50;;;;;;;6.76;47.93;101794.28;4914255;29;20052;-81
2022/04/13 03:08:08;;;;;;;3.08;0.60;;;;;;;6.86;48.55;101804.94;4900364;29;20366;-82
2022/04/13 03:10:34;;;;;;;2.50;1.00;;;;;;;6.87;48.50;101788.72;4899145;29;20036;-81
2022/04/13 03:12:59;;;;;;;4.30;0.70;;;;;;;6.88;48.40;101794.91;4891966;29;20036;-81
2022/04/13 03:15:24;;;;;;;3.05;0.60;;;;;;;6.79;48.80;101780.63;4919172;29;20071;-81
2022/04/13 03:17:52;;;;;;;0.63;0.45;;;;;;;6.52;48.90;101736.00;4913355;29;20043;-81
2022/04/13 03:20:35;;;;;;;1.25;0.52;;;;;;;6.83;49.16;101792.69;4898628;29;20112;-81
2022/04/13 03:23:02;;;;;;;1.48;0.60;;;;;;;6.96;49.12;101819.94;4901855;29;20092;-80
2022/04/13 03:25:27;;;;;;;1.52;0.60;;;;;;;6.83;49.06;101793.53;4906106;29;20032;-81
2022/04/13 03:27:53;;;;;;;3.47;0.85;;;;;;;6.85;49.39;101811.25;4901347;29;20037;-81
2022/04/13 03:30:18;;;;;;;2.97;0.68;;;;;;;6.92;49.39;101809.66;4899953;29;20032;-80
2022/04/13 03:32:44;;;;;;;3.33;0.70;;;;;;;6.85;49.69;101801.41;4901121;29;20061;-81
2022/04/13 03:35:11;;;;;;;3.58;0.90;;;;;;;6.89;49.48;101802.81;4910551;29;20040;-82
2022/04/13 03:37:37;;;;;;;2.22;0.63;;;;;;;6.96;49.57;101805.72;4917948;29;20469;-81
2022/04/13 03:40:03;;;;;;;2.65;0.70;;;;;;;6.95;50.19;101806.69;4918846;29;20046;-81
2022/04/13 03:42:38;;;;;;;5.13;0.60;;;;;;;6.93;50.28;101798.81;4908885;29;20133;-80
2022/04/13 03:45:09;;;;;;;1.92;0.73;;;;;;;7.01;50.17;101804.25;4903523;29;20043;-81
2022/04/13 03:47:35;;;;;;;4.57;1.00;;;;;;;6.94;50.79;101800.50;4913817;29;20083;-81
2022/04/13 03:50:00;;;;;;;2.67;0.70;;;;;;;6.87;50.98;101799.44;4898510;29;20122;-81
2022/04/13 03:52:26;;;;;;;2.22;0.80;;;;;;;6.86;51.51;101797.75;4886818;29;20144;-81
2022/04/13 03:54:52;;;;;;;2.25;0.77;;;;;;;6.84;51.53;101799.72;4930595;29;20088;-80
2022/04/13 03:57:17;;;;;;;2.13;0.73;;;;;;;6.83;52.47;101790.03;4911741;29;20032;-81
2022/04/13 03:59:42;;;;;;;1.83;0.73;;;;;;;6.68;53.04;101780.81;4902435;29;20036;-81
2022/04/13 04:02:08;;;;;;;2.67;1.00;;;;;;;6.78;54.07;101801.16;4896353;29;20047;-81
2022/04/13 04:04:33;;;;;;;4.25;0.85;;;;;;;6.64;54.93;101792.81;4918278;29;20123;-80
2022/04/13 04:06:59;;;;;;;3.42;0.80;;;;;;;6.59;55.56;101801.28;4904049;29;20116;-81
2022/04/13 04:09:24;;;;;;;1.77;0.77;;;;;;;6.50;56.39;101797.66;4900476;29;20440;-81
2022/04/13 04:11:49;;;;;;;2.45;0.77;;;;;;;6.42;58.26;101791.34;4898598;29;20021;-80
2022/04/13 04:14:15;;;;;;;1.67;0.57;;;;;;;6.45;58.85;101791.91;4900385;29;20460;-80
2022/04/13 04:16:40;;;;;;;2.60;0.60;;;;;;;6.32;60.28;101786.06;4906598;29;20143;-81
2022/04/13 04:19:05;;;;;;;3.72;0.80;;;;;;;6.13;62.06;101765.63;4899941;29;20055;-80
2022/04/13 04:21:31;;;;;;;1.25;0.50;;;;;;;5.99;64.22;101756.22;4899586;29;20032;-81
2022/04/13 04:23:56;;;;;;;2.92;1.17;;;;;;;5.91;66.60;101763.25;4907681;29;20024;-82
2022/04/13 04:26:22;;;;;;;4.00;0.80;;;;;;;5.79;68.55;101771.41;4920450;29;20052;-81
2022/04/13 04:28:47;;;;;;;2.47;0.70;;;;;;;5.62;68.97;101754.31;4899730;29;20040;-81
2022/04/13 04:31:12;;;;;;;4.00;0.70;;;;;;;5.74;68.76;101759.50;4905883;29;20013;-81
2022/04/13 04:33:38;;;;;;;3.67;0.80;;;;;;;4.15;69.27;101513.75;4963976;23;20060;-81
2022/04/13 04:36:04;;;;;;;5.93;1.05;;;;;;;4.22;68.17;101502.38;4940303;28;20075;-81
2022/04/13 04:38:32;;;;;;;4.13;0.68;;;;;;;4.54;69.16;101577.69;4935395;29;20517;-82
2022/04/13 04:40:59;;;;;;;2.85;0.70;;;;;;;5.81;68.35;101757.94;4937524;28;20012;-83
2022/04/13 04:48:35;;;;;;;2.67;0.90;;;;;;;5.77;67.30;101738.69;5155959;23;20031;-83
2022/04/13 04:51:00;;;;;;;2.83;0.80;;;;;;;5.86;67.62;101769.00;4958688;29;20035;-84
2022/04/13 04:56:01;;;;;;;2.55;0.75;;;;;;;4.99;66.82;101643.75;5417796;23;20052;-84
2022/04/13 04:58:27;;;;;;;3.17;0.70;;;;;;;5.79;67.28;101767.91;4935318;28;20758;-81
2022/04/13 05:00:53;;;;;;;3.45;0.90;;;;;;;5.80;66.41;101750.91;4938660;29;20100;-84
2022/04/13 05:03:19;;;;;;;1.40;0.70;;;;;;;5.95;66.96;101754.81;4938138;29;20103;-83
2022/04/13 05:05:44;;;;;;;2.40;0.50;;;;;;;5.67;67.48;101739.72;4937608;28;20056;-81
2022/04/13 05:08:09;;;;;;;2.25;0.80;;;;;;;5.71;67.21;101760.63;4937484;29;20025;-82
2022/04/13 05:10:35;;;;;;;2.97;0.98;;;;;;;5.85;66.88;101768.19;4938258;29;20032;-82
2022/04/13 05:13:02;;;;;;;3.78;0.90;;;;;;;6.02;66.03;101768.44;4929335;29;20517;-81
2022/04/13 05:15:28;;;;;;;2.83;0.80;;;;;;;6.10;66.34;101780.09;4940289;29;20043;-80
2022/04/13 05:17:53;;;;;;;1.70;0.60;;;;;;;6.09;66.00;101778.44;4933681;29;20095;-80
2022/04/13 05:20:19;;;;;;;2.08;0.60;;;;;;;6.13;65.27;101786.16;4937379;29;20056;-81
2022/04/13 05:22:44;;;;;;;2.83;0.60;;;;;;;6.16;65.17;101769.78;4938982;29;20032;-81
2022/04/13 05:25:15;;;;;;;1.38;0.55;;;;;;;6.02;64.91;101765.78;4902170;29;20048;-80
2022/04/13 05:27:41;;;;;;;3.72;0.85;;;;;;;6.25;64.90;101785.81;4916512;29;20389;-79
2022/04/13 05:30:08;;;;;;;1.95;0.60;;;;;;;6.22;65.33;101782.56;4911873;29;20028;-79
2022/04/13 05:32:58;;;;;;;1.60;0.60;;;;;;;6.13;65.32;101786.16;4911330;29;20115;-78
2022/04/13 05:35:29;;;;;;;3.17;0.95;;;;;;;5.93;65.29;101758.63;4912259;29;20029;-78
2022/04/13 05:37:56;;;;;;;2.03;0.70;;;;;;;5.99;65.80;101784.75;4898668;29;20411;-78
2022/04/13 05:40:23;;;;;;;3.17;0.70;;;;;;;5.98;66.20;101770.56;4908141;29;20044;-78
2022/04/13 05:42:49;;;;;;;4.20;0.70;;;;;;;6.00;66.04;101783.81;4924560;29;20034;-78
2022/04/13 05:45:15;;;;;;;5.07;0.80;;;;;;;5.98;66.10;101777.75;4910980;29;20027;-78
2022/04/13 05:47:44;;;;;;;4.85;0.70;;;;;;;5.99;65.95;101777.59;4910516;29;20032;-78
2022/04/13 05:50:11;;;;;;;4.72;0.70;;;;;;;6.05;65.91;101777.00;4910444;29;20040;-78
2022/04/13 05:52:37;;;;;;;1.60;0.68;;;;;;;5.97;65.59;101758.22;4911067;29;20020;-78
2022/04/13 05:55:02;;;;;;;3.42;1.05;;;;;;;6.03;65.49;101748.78;4915485;29;20144;-81
2022/04/13 05:57:28;;;;;;;4.10;0.80;;;;;;;6.14;64.81;101751.25;4913965;29;20039;-79
2022/04/13 05:59:56;;;;;;;3.53;0.80;;;;;;;6.28;64.46;101753.44;4914535;29;20123;-78
2022/04/13 06:02:23;;;;;;;5.28;0.90;;;;;;;6.27;64.09;101742.91;4916879;29;20031;-79
2022/04/13 06:04:48;;;;;;;2.00;0.70;;;;;;;6.31;63.56;101745.13;4916465;29;20032;-79
2022/04/13 06:07:14;;;;;;;3.75;0.90;;;;;;;6.32;63.25;101737.94;4919153;29;20091;-79
2022/04/13 06:09:39;;;;;;;2.90;0.80;;;;;;;6.44;62.65;101733.25;4902080;29;20035;-79
2022/04/13 06:12:05;;;;;;;2.13;0.98;;;;;;;6.36;62.07;101739.34;4916812;29;20462;-79
2022/04/13 06:14:30;;;;;;;2.47;0.80;;;;;;;6.36;62.41;101734.00;4918948;29;20032;-79
2022/04/13 06:16:56;;;;;;;4.95;0.90;;;;;;;6.48;61.72;101726.59;4920022;29;20051;-78
2022/04/13 06:19:22;;;;;;;2.83;0.90;;;;;;;6.35;61.81;101716.25;4902891;29;20382;-78
2022/04/13 06:21:47;;;;;;;3.42;0.82;;;;;;;6.54;61.66;101729.53;4919504;29;20023;-79
2022/04/13 06:24:13;;;;;;;4.70;0.85;;;;;;;6.63;61.43;101727.78;4919647;29;20104;-78
2022/04/13 06:26:38;;;;;;;4.60;0.90;;;;;;;6.68;61.48;101727.31;4915006;29;20040;-78
2022/04/13 06:29:04;;;;;;;3.03;0.95;;;;;;;6.73;61.05;101717.03;4915868;29;20107;-79
2022/04/13 06:31:29;;;;;;;2.90;0.90;;;;;;;6.51;61.12;101704.91;4925643;29;20418;-78
2022/04/13 06:33:54;;;;;;;4.40;1.08;;;;;;;6.75;61.28;101725.72;4924726;29;20032;-79
2022/04/13 06:36:20;;;;;;;3.92;0.98;;;;;;;6.84;61.20;101722.16;4921360;29;20122;-78
2022/04/13 06:38:45;;;;;;;7.18;0.90;;;;;;;6.86;61.09;101722.00;4919723;29;20028;-79
2022/04/13 06:41:11;;;;;;;5.93;1.00;;;;;;;6.95;61.04;101724.59;4917081;29;20032;-79
2022/04/13 06:43:38;;;;;;;3.90;0.98;;;;;;;6.82;60.74;101705.38;4919392;29;20038;-79
2022/04/13 06:46:03;;;;;;;4.97;1.25;;;;;;;6.82;61.03;101702.72;4919037;29;20028;-78
2022/04/13 06:48:29;;;;;;;4.43;1.52;;;;;;;6.89;60.38;101711.84;4898755;29;20368;-79
2022/04/13 06:50:54;;;;;;;3.03;0.95;;;;;;;6.95;60.46;101713.03;4899321;29;20131;-79
2022/04/13 06:53:20;;;;;;;5.43;1.30;;;;;;;6.92;60.14;101703.50;4912969;29;20061;-78
2022/04/13 06:55:47;;;;;;;6.25;1.10;;;;;;;7.04;60.20;101715.66;4912587;29;20060;-79
2022/04/13 06:58:14;;;;;;;4.50;1.20;;;;;;;7.22;59.79;101728.19;4911957;29;20036;-79
2022/04/13 07:00:39;;;;;;;6.47;1.30;;;;;;;7.27;59.83;101725.88;4915530;29;20111;-79
2022/04/13 07:03:06;;;;;;;5.22;1.25;;;;;;;7.41;59.39;101743.22;4915074;29;20185;-79
2022/04/13 07:05:32;;;;;;;6.60;1.00;;;;;;;7.37;59.43;101733.81;4911410;29;20047;-78
2022/04/13 07:07:59;;;;;;;6.05;1.40;;;;;;;7.57;58.95;101738.00;4915168;29;20032;-79
2022/04/13 07:10:27;;;;;;;4.15;1.30;;;;;;;7.58;58.57;101744.19;4913553;29;20036;-79
2022/04/13 07:12:53;;;;;;;4.40;1.48;;;;;;;7.76;58.45;101761.06;4914531;29;20043;-79
2022/04/13 07:15:19;;;;;;;5.35;1.55;;;;;;;7.74;58.53;101750.50;4917841;29;20060;-78
2022/04/13 07:17:47;;;;;;;5.18;1.50;;;;;;;7.45;58.52;101716.00;4918651;29;20028;-79
2022/04/13 07:20:13;;;;;;;9.63;1.80;;;;;;;7.82;57.83;101757.75;4915763;29;20024;-79
2022/04/13 07:22:57;;;;;;;4.82;1.40;;;;;;;7.89;56.85;101734.69;4916947;29;20020;-79
2022/04/13 07:25:23;;;;;;;7.22;1.63;;;;;;;7.93;57.67;101733.38;4898847;29;20056;-79
2022/04/13 07:27:49;;;;;;;8.15;1.60;;;;;;;7.71;57.41;101720.50;4915208;29;20116;-79
2022/04/13 07:30:15;;;;;;;4.90;1.38;;;;;;;8.16;57.51;101762.31;4918204;29;20082;-79
2022/04/13 07:32:45;;;;;;;7.78;1.77;;;;;;;8.29;56.50;101759.19;4921552;29;20039;-79
2022/04/13 07:35:11;;;;;;;8.07;1.88;;;;;;;8.17;56.22;101742.53;4924762;29;20388;-79
2022/04/13 07:37:39;;;;;;;6.80;2.00;;;;;;;8.15;56.48;101758.78;4914559;29;20024;-79
2022/04/13 07:40:07;;;;;;;6.38;1.85;;;;;;;8.22;56.32;101748.25;4915275;29;20362;-79
2022/04/13 07:42:32;;;;;;;7.43;2.17;;;;;;;8.32;56.66;101759.69;4910803;29;20035;-79
2022/04/13 07:45:02;;;;;;;5.05;1.95;;;;;;;8.39;56.22;101746.53;4898300;29;20040;-79
2022/04/13 07:47:28;;;;;;;9.60;2.00;;;;;;;8.53;55.88;101748.56;4898324;29;20456;-79
2022/04/13 07:49:54;;;;;;;8.63;1.90;;;;;;;8.67;55.71;101741.75;4914523;29;20040;-79
2022/04/13 07:52:19;;;;;;;6.32;2.00;;;;;;;8.69;56.04;101729.00;4912871;29;20047;-78
2022/04/13 07:54:44;;;;;;;5.85;2.42;;;;;;;8.63;55.60;101725.13;4913994;29;20359;-78
2022/04/13 07:57:10;;;;;;;5.65;2.17;;;;;;;8.66;55.68;101727.50;4909667;29;20031;-79
2022/04/13 07:59:36;;;;;;;8.25;2.28;;;;;;;8.57;55.40;101717.72;4911386;29;20099;-79
2022/04/13 08:02:02;;;;;;;7.47;2.10;;;;;;;8.58;55.33;101711.38;4914468;29;20028;-79
2022/04/13 08:04:28;;;;;;;6.93;2.20;;;;;;;8.66;55.00;101710.56;4905868;29;20390;-79
2022/04/13 08:06:53;;;;;;;8.00;3.00;;;;;;;8.90;54.86;101710.59;4918530;29;20024;-78
2022/04/13 08:09:19;;;;;;;3.78;2.20;;;;;;;8.89;54.59;101692.81;4910346;29;20035;-78
2022/04/13 08:11:45;;;;;;;9.13;2.70;;;;;;;9.05;53.76;101718.00;4911141;29;20039;-78
2022/04/13 08:14:11;;;;;;;7.45;2.97;;;;;;;9.15;53.93;101710.63;4913602;29;20055;-78
2022/04/13 08:16:37;;;;;;;6.43;3.08;;;;;;;9.20;53.61;101718.16;4911094;29;20037;-78
2022/04/13 08:19:02;;;;;;;7.25;2.85;;;;;;;8.96;54.10;101697.53;4914386;29;20074;-81
2022/04/13 08:21:28;;;;;;;9.05;3.05;;;;;;;9.28;53.86;101702.91;4898523;29;20047;-80
2022/04/13 08:23:53;;;;;;;5.82;3.00;;;;;;;9.33;53.58;101703.22;4922929;29;20107;-81
2022/04/13 08:26:18;;;;;;;8.85;2.85;;;;;;;9.32;53.40;101703.41;4910145;29;20040;-81
2022/04/13 08:28:44;;;;;;;8.80;3.30;;;;;;;9.52;53.58;101682.38;4912521;29;20051;-78
2022/04/13 08:31:09;;;;;;;10.38;3.70;;;;;;;9.63;53.01;101663.22;4911853;29;20040;-78
2022/04/13 08:33:38;;;;;;;10.50;3.58;;;;;;;9.85;53.38;101669.72;4897837;29;20481;-80
2022/04/13 08:36:04;;;;;;;8.23;3.40;;;;;;;9.92;51.87;101669.84;4913801;29;20048;-81
2022/04/13 08:38:29;;;;;;;8.77;3.80;;;;;;;9.94;52.33;101674.06;4917024;29;20083;-80
2022/04/13 08:41:02;;;;;;;8.18;3.20;;;;;;;10.11;51.80;101667.59;4914942;29;20036;-81
2022/04/13 08:43:44;;;;;;;6.75;3.70;;;;;;;10.16;51.60;101642.00;4910418;29;20478;-81
2022/04/13 08:46:18;;;;;;;8.52;3.70;;;;;;;10.55;50.92;101674.28;4912251;29;20337;-81
2022/04/13 08:48:47;;;;;;;11.65;4.20;;;;;;;10.67;50.41;101672.88;4913634;29;20032;-81
2022/04/13 08:51:15;;;;;;;8.52;3.90;;;;;;;10.07;50.76;101600.91;4911481;29;20040;-81
2022/04/13 08:53:44;;;;;;;8.45;4.18;;;;;;;10.58;50.15;101630.88;4910326;29;20032;-81
2022/04/13 08:56:14;;;;;;;8.98;4.05;;;;;;;10.80;49.96;101621.97;4926727;29;20067;-79
2022/04/13 08:58:44;;;;;;;12.30;4.18;;;;;;;10.95;48.56;101615.78;4924953;29;20028;-78
2022/04/13 09:01:22;;;;;;;10.75;4.30;;;;;;;10.94;49.12;101624.88;4910299;29;20087;-78
2022/04/13 09:03:50;;;;;;;9.13;3.95;;;;;;;11.19;48.65;101636.25;4925636;29;20347;-78
2022/04/13 09:06:16;;;;;;;9.40;4.18;;;;;;;11.23;48.21;101624.94;4912033;29;20024;-78
2022/04/13 09:08:58;;;;;;;9.10;4.25;;;;;;;11.13;48.04;101623.53;4913878;29;20043;-78
2022/04/13 09:11:23;;;;;;;9.60;4.32;;;;;;;11.36;48.59;101629.72;4915554;29;20040;-78
2022/04/13 09:13:50;;;;;;;13.07;4.45;;;;;;;11.38;48.05;101618.72;4913114;29;20028;-80
2022/04/13 09:16:16;;;;;;;11.07;4.07;;;;;;;11.29;47.97;101609.88;4913021;29;20047;-78
2022/04/13 09:18:43;;;;;;;9.95;4.28;;;;;;;11.03;48.22;101592.31;4923600;29;20025;-78
2022/04/13 09:21:11;;;;;;;10.40;4.55;;;;;;;11.27;48.34;101599.31;4909942;29;20080;-79
2022/04/13 09:23:36;;;;;;;9.65;4.20;;;;;;;11.31;48.20;101574.69;4914249;29;20076;-79
2022/04/13 09:26:03;;;;;;;11.13;3.85;;;;;;;11.41;47.43;101588.72;4918765;29;20114;-81
2022/04/13 09:28:29;;;;;;;6.85;3.60;;;;;;;11.25;46.95;101566.31;4916700;29;20478;-83
2022/04/13 09:30:54;;;;;;;7.97;4.63;;;;;;;11.71;47.25;101576.06;4916337;29;20043;-79
2022/04/13 09:33:19;;;;;;;8.63;4.32;;;;;;;11.77;46.65;101573.47;4913041;29;20028;-79
2022/04/13 09:35:45;;;;;;;9.70;4.50;;;;;;;12.01;46.90;101568.78;4929042;29;20032;-80
2022/04/13 09:38:10;;;;;;;10.13;4.70;;;;;;;12.09;46.39;101555.22;4919419;29;20044;-80
2022/04/13 09:40:38;;;;;;;8.98;4.72;;;;;;;12.62;46.43;101571.94;4932381;29;20466;-80
2022/04/13 09:43:05;;;;;;;9.95;4.65;;;;;;;12.62;45.59;101565.69;4916904;29;20032;-80
2022/04/13 09:45:43;;;;;;;19.30;5.53;;;;;;;12.76;45.87;101564.78;4917126;29;20109;-79
2022/04/13 09:48:13;;;;;;;11.10;5.47;;;;;;;12.45;45.69;101552.47;4916240;29;20040;-79
2022/04/13 09:50:40;;;;;;;11.23;4.93;;;;;;;12.76;45.23;101555.84;4913684;29;20340;-79
2022/04/13 09:53:08;;;;;;;12.95;4.70;;;;;;;12.84;45.10;101544.88;4916336;29;20426;-81
2022/04/13 09:55:36;;;;;;;12.02;4.97;;;;;;;12.86;44.28;101551.75;4923421;29;20427;-83
2022/04/13 09:58:12;;;;;;;6.60;4.40;;;;;;;12.80;44.48;101540.91;4924192;29;20032;-83
2022/04/13 10:00:39;;;;;;;14.15;4.78;;;;;;;13.05;44.34;101520.53;4905388;29;20032;-82
2022/04/13 10:03:11;;;;;;;12.73;5.30;;;;;;;13.42;43.92;101537.41;4924406;29;20040;-81
2022/04/13 10:05:37;;;;;;;9.57;5.10;;;;;;;13.54;43.85;101527.69;4915995;29;20036;-80
2022/04/13 10:08:10;;;;;;;11.30;4.68;;;;;;;13.57;43.38;101538.09;4919762;29;20036;-81
2022/04/13 10:10:40;;;;;;;11.63;5.20;;;;;;;13.74;43.40;101540.44;4925455;29;20088;-80
2022/04/13 10:13:05;;;;;;;14.07;5.43;;;;;;;13.95;43.24;101539.50;4948784;29;20068;-81
2022/04/13 10:15:30;;;;;;;9.20;5.47;;;;;;;14.14;42.95;101537.88;4924032;29;20067;-80
2022/04/13 10:18:00;;;;;;;12.50;4.97;;;;;;;14.43;42.95;101523.13;4920859;29;20024;-81
2022/04/13 10:20:41;;;;;;;8.18;5.05;;;;;;;14.26;42.47;101520.81;4927634;29;20024;-81
2022/04/13 10:23:07;;;;;;;10.52;5.10;;;;;;;14.24;42.38;101508.56;4926913;29;20053;-81
2022/04/13 10:25:32;;;;;;;11.02;5.47;;;;;;;14.37;42.38;101505.88;4929817;29;20032;-81
2022/04/13 10:28:00;;;;;;;11.73;5.13;;;;;;;14.14;42.11;101491.84;4923206;29;20118;-81
2022/04/13 10:30:33;;;;;;;15.45;5.93;;;;;;;14.28;42.05;101493.56;4925346;29;20036;-81
2022/04/13 10:33:00;;;;;;;12.48;5.57;;;;;;;14.34;41.62;101490.03;4920188;29;20031;-80
2022/04/13 10:35:26;;;;;;;14.35;5.10;;;;;;;14.32;41.74;101470.44;4917965;29;20047;-80
2022/04/13 10:37:52;;;;;;;14.32;5.75;;;;;;;14.48;41.70;101470.03;4919062;29;20035;-80
2022/04/13 10:40:22;;;;;;;12.95;5.78;;;;;;;14.26;41.61;101476.69;4936790;29;20350;-81
2022/04/13 10:42:51;;;;;;;13.10;5.28;;;;;;;14.38;41.94;101479.63;4938318;29;20121;-81
2022/04/13 10:45:17;;;;;;;13.90;5.20;;;;;;;14.43;41.94;101482.53;4923092;29;20079;-81
2022/04/13 10:47:52;;;;;;;10.77;5.78;;;;;;;14.31;41.71;101474.19;4920309;29;20032;-81
2022/04/13 10:50:30;;;;;;;18.42;5.55;;;;;;;14.21;41.49;101468.38;4919632;29;20048;-80
2022/04/13 10:53:06;;;;;;;18.73;5.88;;;;;;;14.08;41.59;101469.19;4936818;29;20032;-81
2022/04/13 10:55:34;;;;;;;10.02;4.95;;;;;;;13.89;42.44;101478.91;4940868;29;20102;-81
2022/04/13 10:58:10;;;;;;;10.85;5.13;;;;;;;13.74;42.69;101475.53;4921780;29;20036;-81
2022/04/13 11:00:40;;;;;;;9.65;5.10;;;;;;;13.40;42.96;101450.25;4922134;29;20473;-80
2022/04/13 11:03:05;;;;;;;15.55;4.90;;;;;;;13.58;44.41;101472.19;4926186;29;20179;-81
2022/04/13 11:05:32;;;;;;;15.07;5.70;;;;;;;13.60;44.94;101483.59;4936188;29;20028;-81
2022/04/13 11:08:23;;;;;;;15.88;5.40;;;;;;;13.54;44.74;101484.44;4934072;29;20024;-81
2022/04/13 11:10:50;;;;;;;10.00;4.65;;;;;;;13.72;46.07;101486.56;4938482;29;20020;-81
2022/04/13 11:13:16;;;;;;;12.38;4.70;;;;;;;13.73;45.80;101487.41;4905880;29;20459;-83
2022/04/13 11:15:47;;;;;;;13.05;5.30;;;;;;;13.69;45.90;101465.34;4910964;29;20043;-81
2022/04/13 11:18:16;;;;;;;12.45;5.25;;;;;;;13.45;45.15;101458.59;4927308;29;20087;-83
2022/04/13 11:21:11;;;;;;;12.65;5.50;;;;;;;13.42;45.90;101429.28;4929005;29;20024;-82
2022/04/13 11:23:47;;;;;;;14.40;5.20;;;;;;;13.62;45.85;101478.84;4921120;29;20027;-84
2022/04/13 11:26:13;;;;;;;14.38;5.28;;;;;;;13.49;45.90;101470.69;4928178;29;20051;-82
2022/04/13 11:28:39;;;;;;;11.57;5.30;;;;;;;13.32;46.20;101470.19;4931767;29;20047;-83
2022/04/13 11:31:09;;;;;;;14.52;5.20;;;;;;;13.33;47.03;101471.03;4926884;29;20050;-83
2022/04/13 11:33:50;;;;;;;13.88;5.53;;;;;;;13.37;48.36;101480.41;4927374;29;20024;-83
2022/04/13 11:36:18;;;;;;;11.50;5.20;;;;;;;13.27;50.37;101469.94;4927230;29;20115;-82